Time,TemperatureF,DewpointF,PressureIn,WindDirection,WindDirectionDegrees,WindSpeedMPH,WindSpeedGustMPH,Humidity,HourlyPrecipIn,Conditions,Clouds,dailyrainin,SoftwareType,DateUTC
2013-03-24 00:02:00,45.0,24.4,30.10,WSW,257,0.0,0.0,44,0.00,,,0.00,meteohub,2013-03-24 07:02:00,
2013-03-24 00:07:00,44.6,24.1,30.10,WSW,257,0.0,0.0,44,0.00,,,0.00,meteohub,2013-03-24 07:07:00,
2013-03-24 00:12:00,44.4,23.9,30.09,WSW,241,0.0,0.0,44,0.00,,,0.00,meteohub,2013-03-24 07:12:00,
2013-03-24 00:17:00,44.4,23.9,30.09,SE,135,0.0,0.0,44,0.00,,,0.00,meteohub,2013-03-24 07:17:00,
2013-03-24 00:22:00,44.4,23.9,30.09,SW,233,0.0,0.0,44,0.00,,,0.00,meteohub,2013-03-24 07:22:00,
2013-03-24 00:27:00,44.6,22.3,30.09,SW,233,0.0,0.0,41,0.00,,,0.00,meteohub,2013-03-24 07:27:00,
2013-03-24 00:32:00,44.8,21.4,30.09,NNE,30,0.0,0.0,39,0.00,,,0.00,meteohub,2013-03-24 07:32:00,
2013-03-24 00:37:00,45.0,22.1,30.09,WSW,250,0.0,3.0,40,0.00,,,0.00,meteohub,2013-03-24 07:37:00,
2013-03-24 00:42:00,44.8,21.9,30.09,SE,124,0.0,3.0,40,0.00,,,0.00,meteohub,2013-03-24 07:42:00,
2013-03-24 00:47:00,44.8,21.9,30.09,WNW,283,1.0,3.0,40,0.00,,,0.00,meteohub,2013-03-24 07:47:00,
2013-03-24 00:52:00,44.8,22.5,30.09,West,260,1.0,4.0,41,0.00,,,0.00,meteohub,2013-03-24 07:52:00,
2013-03-24 00:57:00,44.6,23.0,30.09,SE,132,0.0,4.0,42,0.00,,,0.00,meteohub,2013-03-24 07:57:00,
2013-03-24 01:07:00,44.4,23.4,30.09,WSW,248,0.0,5.0,43,0.00,,,0.00,meteohub,2013-03-24 08:07:00,
2013-03-24 01:17:00,44.4,25.5,30.09,SSW,200,0.0,5.0,47,0.00,,,0.00,meteohub,2013-03-24 08:17:00,
2013-03-24 01:22:00,44.8,25.3,30.09,SW,235,0.0,2.0,46,0.00,,,0.00,meteohub,2013-03-24 08:22:00,
2013-03-24 01:27:00,45.0,27.0,30.09,South,172,0.0,2.0,49,0.00,,,0.00,meteohub,2013-03-24 08:27:00,
2013-03-24 01:32:00,45.3,27.9,30.08,SE,124,2.0,3.0,50,0.00,,,0.00,meteohub,2013-03-24 08:32:00,
2013-03-24 01:37:00,45.3,26.8,30.08,SSW,204,0.0,6.0,48,0.00,,,0.00,meteohub,2013-03-24 08:37:00,
2013-03-24 01:42:00,45.3,27.9,30.08,West,281,0.0,6.0,50,0.00,,,0.00,meteohub,2013-03-24 08:42:00,
2013-03-24 01:47:00,45.3,27.3,30.08,SE,145,1.0,6.0,49,0.00,,,0.00,meteohub,2013-03-24 08:47:00,
2013-03-24 01:52:00,45.5,27.0,30.08,SSE,167,0.0,3.0,48,0.00,,,0.00,meteohub,2013-03-24 08:52:00,
2013-03-24 01:57:00,45.1,28.0,30.08,SE,129,1.0,3.0,51,0.00,,,0.00,meteohub,2013-03-24 08:57:00,
2013-03-24 02:02:00,45.1,26.1,30.08,SSE,156,2.0,5.0,47,0.00,,,0.00,meteohub,2013-03-24 09:02:00,
2013-03-24 02:07:00,45.3,26.8,30.08,West,276,0.0,5.0,48,0.00,,,0.00,meteohub,2013-03-24 09:07:00,
2013-03-24 02:12:00,45.3,25.7,30.08,South,188,4.0,5.0,46,0.00,,,0.00,meteohub,2013-03-24 09:12:00,
2013-03-24 02:17:00,45.1,25.5,30.08,WNW,285,0.0,4.0,46,0.00,,,0.00,meteohub,2013-03-24 09:17:00,
2013-03-24 02:22:00,45.1,25.0,30.08,SSE,155,0.0,4.0,45,0.00,,,0.00,meteohub,2013-03-24 09:22:00,
2013-03-24 02:27:00,44.8,24.3,30.08,WNW,291,0.0,4.0,44,0.00,,,0.00,meteohub,2013-03-24 09:27:00,
2013-03-24 02:32:00,45.0,22.6,30.08,West,271,0.0,3.0,41,0.00,,,0.00,meteohub,2013-03-24 09:32:00,
2013-03-24 02:42:00,45.3,25.2,30.07,South,184,4.0,4.0,45,0.00,,,0.00,meteohub,2013-03-24 09:42:00,
2013-03-24 02:47:00,45.5,26.4,30.07,SSE,153,2.0,4.0,47,0.00,,,0.00,meteohub,2013-03-24 09:47:00,
2013-03-24 02:52:00,45.5,27.5,30.07,West,259,1.0,4.0,49,0.00,,,0.00,meteohub,2013-03-24 09:52:00,
2013-03-24 03:02:00,46.0,27.9,30.07,SE,143,2.0,4.0,49,0.00,,,0.00,meteohub,2013-03-24 10:02:00,
2013-03-24 03:12:00,45.7,27.1,30.06,SE,131,1.0,4.0,48,0.00,,,0.00,meteohub,2013-03-24 10:12:00,
2013-03-24 03:17:00,46.2,27.1,30.06,West,260,1.0,4.0,47,0.00,,,0.00,meteohub,2013-03-24 10:17:00,
2013-03-24 03:22:00,46.0,26.4,30.06,SSW,193,0.0,4.0,46,0.00,,,0.00,meteohub,2013-03-24 10:22:00,
2013-03-24 03:27:00,46.2,25.0,30.06,SW,226,0.0,4.0,43,0.00,,,0.00,meteohub,2013-03-24 10:27:00,
2013-03-24 03:32:00,46.2,23.9,30.06,SSE,156,0.0,4.0,41,0.00,,,0.00,meteohub,2013-03-24 10:32:00,
2013-03-24 03:37:00,45.7,23.4,30.06,South,187,0.0,4.0,41,0.00,,,0.00,meteohub,2013-03-24 10:37:00,
2013-03-24 03:42:00,45.3,23.0,30.06,WSW,255,0.0,0.0,41,0.00,,,0.00,meteohub,2013-03-24 10:42:00,
2013-03-24 03:47:00,45.1,20.5,30.06,WSW,252,0.0,0.0,37,0.00,,,0.00,meteohub,2013-03-24 10:47:00,
2013-03-24 03:52:00,45.1,19.0,30.06,WSW,255,0.0,0.0,35,0.00,,,0.00,meteohub,2013-03-24 10:52:00,
2013-03-24 04:02:00,45.1,18.5,30.06,WSW,245,0.0,0.0,34,0.00,,,0.00,meteohub,2013-03-24 11:02:00,
2013-03-24 04:07:00,45.1,18.5,30.06,WSW,243,0.0,0.0,34,0.00,,,0.00,meteohub,2013-03-24 11:07:00,
2013-03-24 04:12:00,45.3,18.7,30.06,WSW,243,0.0,0.0,34,0.00,,,0.00,meteohub,2013-03-24 11:12:00,
2013-03-24 04:22:00,44.8,19.4,30.06,WSW,246,0.0,0.0,36,0.00,,,0.00,meteohub,2013-03-24 11:22:00,
2013-03-24 04:27:00,44.8,20.1,30.06,WSW,246,0.0,0.0,37,0.00,,,0.00,meteohub,2013-03-24 11:27:00,
2013-03-24 04:32:00,44.2,20.8,30.06,WSW,246,0.0,0.0,39,0.00,,,0.00,meteohub,2013-03-24 11:32:00,
2013-03-24 04:37:00,43.9,21.2,30.06,WSW,245,0.0,0.0,40,0.00,,,0.00,meteohub,2013-03-24 11:37:00,
2013-03-24 04:42:00,43.9,20.5,30.06,WSW,245,0.0,0.0,39,0.00,,,0.00,meteohub,2013-03-24 11:42:00,
2013-03-24 04:47:00,43.7,21.0,30.06,WSW,245,0.0,0.0,40,0.00,,,0.00,meteohub,2013-03-24 11:47:00,
2013-03-24 04:57:00,43.9,21.2,30.06,WSW,238,0.0,0.0,40,0.00,,,0.00,meteohub,2013-03-24 11:57:00,
2013-03-24 05:07:00,43.9,21.2,30.06,WSW,238,0.0,0.0,40,0.00,,,0.00,meteohub,2013-03-24 12:07:00,
2013-03-24 05:12:00,43.9,19.9,30.06,WSW,240,0.0,0.0,38,0.00,,,0.00,meteohub,2013-03-24 12:12:00,
2013-03-24 05:22:00,44.1,19.4,30.06,WSW,241,0.0,0.0,37,0.00,,,0.00,meteohub,2013-03-24 12:22:00,
2013-03-24 05:27:00,43.9,19.2,30.06,WSW,256,0.0,0.0,37,0.00,,,0.00,meteohub,2013-03-24 12:27:00,
2013-03-24 05:32:00,44.2,19.0,30.06,WSW,257,0.0,0.0,36,0.00,,,0.00,meteohub,2013-03-24 12:32:00,
2013-03-24 05:37:00,44.4,19.0,30.06,WSW,257,0.0,0.0,36,0.00,,,0.00,meteohub,2013-03-24 12:37:00,
2013-03-24 05:47:00,43.9,18.7,30.06,WSW,257,0.0,0.0,36,0.00,,,0.00,meteohub,2013-03-24 12:47:00,
2013-03-24 05:57:00,43.2,18.7,30.06,WSW,257,0.0,0.0,37,0.00,,,0.00,meteohub,2013-03-24 12:57:00,
2013-03-24 06:02:00,43.0,18.5,30.06,WNW,286,0.0,0.0,37,0.00,,,0.00,meteohub,2013-03-24 13:02:00,
2013-03-24 06:07:00,43.2,18.7,30.06,NNE,27,0.0,0.0,37,0.00,,,0.00,meteohub,2013-03-24 13:07:00,
2013-03-24 06:12:00,43.0,19.8,30.06,ENE,68,0.0,0.0,39,0.00,,,0.00,meteohub,2013-03-24 13:12:00,
2013-03-24 06:17:00,42.4,19.8,30.06,ENE,68,0.0,0.0,40,0.00,,,0.00,meteohub,2013-03-24 13:17:00,
2013-03-24 06:22:00,42.3,19.0,30.07,ENE,68,0.0,0.0,39,0.00,,,0.00,meteohub,2013-03-24 13:22:00,
2013-03-24 06:32:00,41.5,19.6,30.07,ENE,68,0.0,0.0,41,0.00,,,0.00,meteohub,2013-03-24 13:32:00,
2013-03-24 06:42:00,40.8,18.3,30.07,East,101,0.0,0.0,40,0.00,,,0.00,meteohub,2013-03-24 13:42:00,
2013-03-24 06:47:00,40.6,17.6,30.06,East,101,0.0,0.0,39,0.00,,,0.00,meteohub,2013-03-24 13:47:00,
2013-03-24 06:57:00,40.5,16.2,30.07,ESE,103,0.0,0.0,37,0.00,,,0.00,meteohub,2013-03-24 13:57:00,
2013-03-24 07:02:00,40.3,16.7,30.07,ESE,102,0.0,0.0,38,0.00,,,0.00,meteohub,2013-03-24 14:02:00,
2013-03-24 07:07:00,40.3,16.2,30.08,East,101,0.0,0.0,37,0.00,,,0.00,meteohub,2013-03-24 14:07:00,
2013-03-24 07:17:00,41.2,16.9,30.08,East,101,0.0,0.0,37,0.00,,,0.00,meteohub,2013-03-24 14:17:00,
2013-03-24 07:22:00,41.5,16.0,30.08,East,101,0.0,0.0,35,0.00,,,0.00,meteohub,2013-03-24 14:22:00,
2013-03-24 07:27:00,42.3,16.5,30.08,East,101,0.0,0.0,35,0.00,,,0.00,meteohub,2013-03-24 14:27:00,
2013-03-24 07:37:00,45.0,14.5,30.08,ESE,102,0.0,0.0,29,0.00,,,0.00,meteohub,2013-03-24 14:37:00,
2013-03-24 07:42:00,45.9,14.5,30.08,NE,39,0.0,0.0,28,0.00,,,0.00,meteohub,2013-03-24 14:42:00,
2013-03-24 07:47:00,46.6,14.4,30.08,NE,39,0.0,0.0,27,0.00,,,0.00,meteohub,2013-03-24 14:47:00,
2013-03-24 07:57:00,47.8,13.6,30.08,NE,34,2.0,0.0,25,0.00,,,0.00,meteohub,2013-03-24 14:57:00,
2013-03-24 08:02:00,48.2,13.1,30.08,NNE,31,0.0,3.0,24,0.00,,,0.00,meteohub,2013-03-24 15:02:00,
2013-03-24 08:07:00,48.7,13.5,30.08,NE,46,0.0,3.0,24,0.00,,,0.00,meteohub,2013-03-24 15:07:00,
2013-03-24 08:12:00,49.1,14.7,30.08,NE,53,1.0,3.0,25,0.00,,,0.00,meteohub,2013-03-24 15:12:00,
2013-03-24 08:17:00,49.3,12.0,30.08,NNE,30,2.0,3.0,22,0.00,,,0.00,meteohub,2013-03-24 15:17:00,
2013-03-24 08:22:00,49.6,13.3,30.08,North,8,0.0,3.0,23,0.00,,,0.00,meteohub,2013-03-24 15:22:00,
2013-03-24 08:27:00,50.0,13.6,30.08,NE,51,1.0,3.0,23,0.00,,,0.00,meteohub,2013-03-24 15:27:00,
2013-03-24 08:37:00,50.5,12.0,30.08,NNE,15,0.0,4.0,21,0.00,,,0.00,meteohub,2013-03-24 15:37:00,
2013-03-24 08:42:00,50.9,13.5,30.09,East,90,2.0,4.0,22,0.00,,,0.00,meteohub,2013-03-24 15:42:00,
2013-03-24 08:47:00,51.3,14.7,30.09,NE,34,1.0,4.0,23,0.00,,,0.00,meteohub,2013-03-24 15:47:00,
2013-03-24 08:52:00,51.8,15.1,30.09,ENE,58,1.0,4.0,23,0.00,,,0.00,meteohub,2013-03-24 15:52:00,
2013-03-24 09:02:00,51.6,12.9,30.09,NE,41,4.0,6.0,21,0.00,,,0.00,meteohub,2013-03-24 16:02:00,
2013-03-24 09:07:00,52.0,16.3,30.09,NE,44,2.0,6.0,24,0.00,,,0.00,meteohub,2013-03-24 16:07:00,
2013-03-24 09:12:00,52.3,15.6,30.09,NNW,330,2.0,6.0,23,0.00,,,0.00,meteohub,2013-03-24 16:12:00,
2013-03-24 09:22:00,52.2,17.4,30.09,North,8,2.0,5.0,25,0.00,,,0.00,meteohub,2013-03-24 16:22:00,
2013-03-24 09:27:00,52.2,14.4,30.09,NE,50,0.0,6.0,22,0.00,,,0.00,meteohub,2013-03-24 16:27:00,
2013-03-24 09:32:00,52.7,16.0,30.10,NE,39,1.0,6.0,23,0.00,,,0.00,meteohub,2013-03-24 16:32:00,
2013-03-24 09:42:00,53.4,16.5,30.09,North,6,3.0,5.0,23,0.00,,,0.00,meteohub,2013-03-24 16:42:00,
2013-03-24 09:47:00,52.9,15.1,30.09,NE,40,3.0,6.0,22,0.00,,,0.00,meteohub,2013-03-24 16:47:00,
2013-03-24 09:52:00,52.9,12.9,30.09,NW,323,2.0,8.0,20,0.00,,,0.00,meteohub,2013-03-24 16:52:00,
2013-03-24 09:57:00,52.5,13.6,30.09,NW,323,0.0,8.0,21,0.00,,,0.00,meteohub,2013-03-24 16:57:00,
2013-03-24 10:02:00,53.2,15.4,30.09,NNE,18,4.0,8.0,22,0.00,,,0.00,meteohub,2013-03-24 17:02:00,
2013-03-24 10:07:00,53.2,16.3,30.09,North,353,3.0,7.0,23,0.00,,,0.00,meteohub,2013-03-24 17:07:00,
2013-03-24 10:17:00,53.2,13.1,30.09,NE,36,4.0,8.0,20,0.00,,,0.00,meteohub,2013-03-24 17:17:00,
2013-03-24 10:22:00,53.1,15.3,30.09,NW,311,5.0,8.0,22,0.00,,,0.00,meteohub,2013-03-24 17:22:00,
2013-03-24 10:32:00,52.5,13.6,30.09,North,357,3.0,9.0,21,0.00,,,0.00,meteohub,2013-03-24 17:32:00,
2013-03-24 10:42:00,52.5,14.7,30.09,NNE,25,4.0,9.0,22,0.00,,,0.00,meteohub,2013-03-24 17:42:00,
2013-03-24 10:47:00,53.8,16.9,30.09,NE,45,1.0,8.0,23,0.00,,,0.00,meteohub,2013-03-24 17:47:00,
2013-03-24 10:52:00,54.1,12.7,30.09,WNW,285,6.0,8.0,19,0.00,,,0.00,meteohub,2013-03-24 17:52:00,
2013-03-24 10:57:00,53.4,14.4,30.09,NW,325,4.0,8.0,21,0.00,,,0.00,meteohub,2013-03-24 17:57:00,
2013-03-24 11:02:00,53.4,15.4,30.09,NE,37,2.0,8.0,22,0.00,,,0.00,meteohub,2013-03-24 18:02:00,
2013-03-24 11:12:00,53.8,15.8,30.09,NW,326,1.0,8.0,22,0.00,,,0.00,meteohub,2013-03-24 18:12:00,
2013-03-24 11:17:00,53.4,13.3,30.09,WNW,294,5.0,8.0,20,0.00,,,0.00,meteohub,2013-03-24 18:17:00,
2013-03-24 11:22:00,53.6,15.6,30.09,West,276,1.0,8.0,22,0.00,,,0.00,meteohub,2013-03-24 18:22:00,
2013-03-24 11:32:00,54.5,15.3,30.08,SSW,208,1.0,7.0,21,0.00,,,0.00,meteohub,2013-03-24 18:32:00,
2013-03-24 11:37:00,54.9,14.5,30.09,West,273,1.0,6.0,20,0.00,,,0.00,meteohub,2013-03-24 18:37:00,
2013-03-24 11:47:00,54.9,15.6,30.09,West,276,0.0,7.0,21,0.00,,,0.00,meteohub,2013-03-24 18:47:00,
2013-03-24 11:57:00,55.0,16.9,30.08,West,281,3.0,11.0,22,0.00,,,0.00,meteohub,2013-03-24 18:57:00,
2013-03-24 12:02:00,54.7,17.6,30.09,WSW,239,2.0,8.0,23,0.00,,,0.00,meteohub,2013-03-24 19:02:00,
2013-03-24 12:07:00,55.6,17.2,30.09,NW,323,1.0,8.0,22,0.00,,,0.00,meteohub,2013-03-24 19:07:00,
2013-03-24 12:17:00,54.7,15.4,30.09,NW,326,4.0,9.0,21,0.00,,,0.00,meteohub,2013-03-24 19:17:00,
2013-03-24 12:27:00,54.5,16.3,30.08,ESE,104,1.0,8.0,22,0.00,,,0.00,meteohub,2013-03-24 19:27:00,
2013-03-24 12:32:00,55.8,20.5,30.08,NNE,15,2.0,6.0,25,0.00,,,0.00,meteohub,2013-03-24 19:32:00,
2013-03-24 12:37:00,56.1,17.8,30.08,NW,321,0.0,6.0,22,0.00,,,0.00,meteohub,2013-03-24 19:37:00,
2013-03-24 12:42:00,57.0,16.3,30.07,NNE,25,2.0,6.0,20,0.00,,,0.00,meteohub,2013-03-24 19:42:00,
2013-03-24 12:47:00,56.7,16.0,30.06,West,264,3.0,6.0,20,0.00,,,0.00,meteohub,2013-03-24 19:47:00,
2013-03-24 12:52:00,57.0,17.4,30.06,East,87,2.0,7.0,21,0.00,,,0.00,meteohub,2013-03-24 19:52:00,
2013-03-24 12:57:00,57.7,16.9,30.06,East,92,1.0,7.0,20,0.00,,,0.00,meteohub,2013-03-24 19:57:00,
2013-03-24 13:07:00,57.4,16.7,30.06,WNW,286,1.0,6.0,20,0.00,,,0.00,meteohub,2013-03-24 20:07:00,
2013-03-24 13:12:00,57.2,16.5,30.06,South,191,1.0,6.0,20,0.00,,,0.00,meteohub,2013-03-24 20:12:00,
2013-03-24 13:17:00,57.2,17.6,30.06,East,98,0.0,5.0,21,0.00,,,0.00,meteohub,2013-03-24 20:17:00,
2013-03-24 13:22:00,58.6,19.9,30.06,ENE,64,0.0,5.0,22,0.00,,,0.00,meteohub,2013-03-24 20:22:00,
2013-03-24 13:27:00,59.9,19.9,30.06,West,278,1.0,5.0,21,0.00,,,0.00,meteohub,2013-03-24 20:27:00,
2013-03-24 13:32:00,59.0,18.0,30.06,North,1,3.0,6.0,20,0.00,,,0.00,meteohub,2013-03-24 20:32:00,
2013-03-24 13:37:00,59.4,17.1,30.05,WNW,294,3.0,6.0,19,0.00,,,0.00,meteohub,2013-03-24 20:37:00,
2013-03-24 13:42:00,58.8,16.7,30.05,NNW,328,1.0,6.0,19,0.00,,,0.00,meteohub,2013-03-24 20:42:00,
2013-03-24 13:52:00,59.9,18.7,30.04,WNW,288,3.0,4.0,20,0.00,,,0.00,meteohub,2013-03-24 20:52:00,
2013-03-24 14:02:00,60.1,19.9,30.04,NW,311,1.0,5.0,21,0.00,,,0.00,meteohub,2013-03-24 21:02:00,
2013-03-24 14:07:00,60.4,20.3,30.04,West,264,1.0,5.0,21,0.00,,,0.00,meteohub,2013-03-24 21:07:00,
2013-03-24 14:12:00,60.3,19.0,30.04,North,351,2.0,5.0,20,0.00,,,0.00,meteohub,2013-03-24 21:12:00,
2013-03-24 14:17:00,59.2,16.9,30.04,East,89,1.0,7.0,19,0.00,,,0.00,meteohub,2013-03-24 21:17:00,
2013-03-24 14:22:00,59.7,19.8,30.03,WNW,302,3.0,7.0,21,0.00,,,0.00,meteohub,2013-03-24 21:22:00,
2013-03-24 14:27:00,59.7,19.8,30.03,NNE,24,0.0,7.0,21,0.00,,,0.00,meteohub,2013-03-24 21:27:00,
2013-03-24 14:32:00,60.6,20.5,30.03,ENE,73,1.0,7.0,21,0.00,,,0.00,meteohub,2013-03-24 21:32:00,
2013-03-24 14:42:00,60.3,20.1,30.03,East,86,1.0,6.0,21,0.00,,,0.00,meteohub,2013-03-24 21:42:00,
2013-03-24 14:47:00,59.7,21.9,30.03,NE,36,0.0,11.0,23,0.00,,,0.00,meteohub,2013-03-24 21:47:00,
2013-03-24 14:57:00,59.7,21.9,30.03,WSW,240,4.0,11.0,23,0.00,,,0.00,meteohub,2013-03-24 21:57:00,
2013-03-24 15:02:00,60.3,20.1,30.02,NW,318,2.0,10.0,21,0.00,,,0.00,meteohub,2013-03-24 22:02:00,
2013-03-24 15:12:00,60.4,21.4,30.02,SSW,203,4.0,7.0,22,0.00,,,0.00,meteohub,2013-03-24 22:12:00,
2013-03-24 15:22:00,60.4,21.4,30.02,ESE,110,0.0,8.0,22,0.00,,,0.00,meteohub,2013-03-24 22:22:00,
2013-03-24 15:27:00,60.8,22.8,30.02,East,90,2.0,8.0,23,0.00,,,0.00,meteohub,2013-03-24 22:27:00,
2013-03-24 15:32:00,60.8,21.7,30.02,NW,306,3.0,8.0,22,0.00,,,0.00,meteohub,2013-03-24 22:32:00,
2013-03-24 15:37:00,60.6,21.6,30.02,SE,136,4.0,6.0,22,0.00,,,0.00,meteohub,2013-03-24 22:37:00,
2013-03-24 15:47:00,61.3,19.9,30.02,NE,48,1.0,6.0,20,0.00,,,0.00,meteohub,2013-03-24 22:47:00,
2013-03-24 15:52:00,61.0,18.5,30.02,SW,219,5.0,5.0,19,0.00,,,0.00,meteohub,2013-03-24 22:52:00,
2013-03-24 15:57:00,60.1,21.0,30.02,WSW,253,0.0,7.0,22,0.00,,,0.00,meteohub,2013-03-24 22:57:00,
2013-03-24 16:07:00,59.5,19.6,30.02,NE,43,6.0,7.0,21,0.00,,,0.00,meteohub,2013-03-24 23:07:00,
2013-03-24 16:17:00,59.5,20.7,30.01,SSW,196,1.0,7.0,22,0.00,,,0.00,meteohub,2013-03-24 23:17:00,
2013-03-24 16:27:00,60.4,20.3,30.01,West,260,0.0,6.0,21,0.00,,,0.00,meteohub,2013-03-24 23:27:00,
2013-03-24 16:32:00,60.3,20.1,30.01,SW,226,1.0,5.0,21,0.00,,,0.00,meteohub,2013-03-24 23:32:00,
2013-03-24 16:37:00,59.7,18.5,30.01,NNW,348,1.0,5.0,20,0.00,,,0.00,meteohub,2013-03-24 23:37:00,
2013-03-24 16:42:00,59.4,19.4,30.01,North,4,2.0,5.0,21,0.00,,,0.00,meteohub,2013-03-24 23:42:00,
2013-03-24 16:47:00,59.2,19.2,30.01,West,270,0.0,6.0,21,0.00,,,0.00,meteohub,2013-03-24 23:47:00,
2013-03-24 16:52:00,59.0,18.0,30.01,NW,311,3.0,6.0,20,0.00,,,0.00,meteohub,2013-03-24 23:52:00,
2013-03-24 16:57:00,58.6,17.6,30.01,NW,320,4.0,6.0,20,0.00,,,0.00,meteohub,2013-03-24 23:57:00,
2013-03-24 17:02:00,57.9,18.1,30.01,West,264,0.0,8.0,21,0.00,,,0.00,meteohub,2013-03-25 00:02:00,
2013-03-24 17:07:00,57.6,19.9,30.01,West,261,0.0,8.0,23,0.00,,,0.00,meteohub,2013-03-25 00:07:00,
2013-03-24 17:12:00,57.4,19.9,30.01,NE,36,3.0,8.0,23,0.00,,,0.00,meteohub,2013-03-25 00:12:00,
2013-03-24 17:17:00,57.0,18.5,30.00,West,277,2.0,5.0,22,0.00,,,0.00,meteohub,2013-03-25 00:17:00,
2013-03-24 17:22:00,56.7,19.2,30.00,ENE,60,0.0,5.0,23,0.00,,,0.00,meteohub,2013-03-25 00:22:00,
2013-03-24 17:27:00,56.5,19.0,30.00,ESE,107,0.0,5.0,23,0.00,,,0.00,meteohub,2013-03-25 00:27:00,
2013-03-24 17:32:00,56.1,19.8,30.00,ESE,115,0.0,5.0,24,0.00,,,0.00,meteohub,2013-03-25 00:32:00,
2013-03-24 17:37:00,55.9,19.6,30.00,ESE,117,0.0,2.0,24,0.00,,,0.00,meteohub,2013-03-25 00:37:00,
2013-03-24 17:42:00,55.6,18.3,30.00,ESE,113,0.0,2.0,23,0.00,,,0.00,meteohub,2013-03-25 00:42:00,
2013-03-24 17:47:00,55.4,19.2,30.00,ESE,113,0.0,2.0,24,0.00,,,0.00,meteohub,2013-03-25 00:47:00,
2013-03-24 17:57:00,54.9,21.6,30.00,ESE,113,0.0,1.0,27,0.00,,,0.00,meteohub,2013-03-25 00:57:00,
2013-03-24 18:02:00,54.5,22.1,30.00,ESE,113,0.0,1.0,28,0.00,,,0.00,meteohub,2013-03-25 01:02:00,
2013-03-24 18:07:00,54.0,23.2,30.00,ESE,113,0.0,1.0,30,0.00,,,0.00,meteohub,2013-03-25 01:07:00,
2013-03-24 18:12:00,53.4,24.3,30.00,ESE,113,0.0,1.0,32,0.00,,,0.00,meteohub,2013-03-25 01:12:00,
2013-03-24 18:17:00,53.1,23.9,30.00,ESE,114,0.0,0.0,32,0.00,,,0.00,meteohub,2013-03-25 01:17:00,
2013-03-24 18:27:00,52.3,24.8,30.01,ESE,114,0.0,0.0,34,0.00,,,0.00,meteohub,2013-03-25 01:27:00,
2013-03-24 18:32:00,52.2,22.5,30.01,ESE,120,0.0,0.0,31,0.00,,,0.00,meteohub,2013-03-25 01:32:00,
2013-03-24 18:37:00,52.3,19.4,30.01,ESE,120,0.0,0.0,27,0.00,,,0.00,meteohub,2013-03-25 01:37:00,
2013-03-24 18:42:00,52.9,18.0,30.01,WNW,302,1.0,0.0,25,0.00,,,0.00,meteohub,2013-03-25 01:42:00,
2013-03-24 18:47:00,53.4,17.6,30.01,WNW,302,0.0,2.0,24,0.00,,,0.00,meteohub,2013-03-25 01:47:00,
2013-03-24 18:52:00,53.2,18.3,30.01,WNW,294,0.0,2.0,25,0.00,,,0.00,meteohub,2013-03-25 01:52:00,
2013-03-24 18:57:00,53.1,19.9,30.01,WNW,290,0.0,2.0,27,0.00,,,0.00,meteohub,2013-03-25 01:57:00,
2013-03-24 19:02:00,52.9,18.0,30.01,West,281,0.0,0.0,25,0.00,,,0.00,meteohub,2013-03-25 02:02:00,
2013-03-24 19:07:00,52.9,18.9,30.01,West,280,0.0,3.0,26,0.00,,,0.00,meteohub,2013-03-25 02:07:00,
2013-03-24 19:12:00,52.3,18.5,30.01,West,280,0.0,3.0,26,0.00,,,0.00,meteohub,2013-03-25 02:12:00,
2013-03-24 19:17:00,51.8,19.8,30.01,West,279,0.0,3.0,28,0.00,,,0.00,meteohub,2013-03-25 02:17:00,
2013-03-24 19:22:00,51.3,20.1,30.02,West,279,0.0,0.0,29,0.00,,,0.00,meteohub,2013-03-25 02:22:00,
2013-03-24 19:32:00,50.7,18.9,30.02,West,280,0.0,0.0,28,0.00,,,0.00,meteohub,2013-03-25 02:32:00,
2013-03-24 19:37:00,50.5,16.9,30.02,West,280,0.0,0.0,26,0.00,,,0.00,meteohub,2013-03-25 02:37:00,
2013-03-24 19:42:00,50.5,16.9,30.02,West,280,0.0,0.0,26,0.00,,,0.00,meteohub,2013-03-25 02:42:00,
2013-03-24 19:47:00,50.5,16.0,30.02,West,264,0.0,0.0,25,0.00,,,0.00,meteohub,2013-03-25 02:47:00,
2013-03-24 19:52:00,50.4,17.6,30.02,West,264,0.0,0.0,27,0.00,,,0.00,meteohub,2013-03-25 02:52:00,
2013-03-24 19:57:00,50.2,17.4,30.02,West,264,0.0,0.0,27,0.00,,,0.00,meteohub,2013-03-25 02:57:00,
2013-03-24 20:02:00,49.8,17.2,30.02,West,264,0.0,0.0,27,0.00,,,0.00,meteohub,2013-03-25 03:02:00,
2013-03-24 20:07:00,49.5,17.8,30.03,West,260,0.0,0.0,28,0.00,,,0.00,meteohub,2013-03-25 03:07:00,
2013-03-24 20:12:00,49.1,17.4,30.03,West,260,0.0,0.0,28,0.00,,,0.00,meteohub,2013-03-25 03:12:00,
2013-03-24 20:17:00,49.3,15.8,30.03,West,259,0.0,0.0,26,0.00,,,0.00,meteohub,2013-03-25 03:17:00,
2013-03-24 20:22:00,49.1,15.6,30.04,West,262,0.0,0.0,26,0.00,,,0.00,meteohub,2013-03-25 03:22:00,
2013-03-24 20:32:00,49.5,16.9,30.04,WSW,250,0.0,0.0,27,0.00,,,0.00,meteohub,2013-03-25 03:32:00,
2013-03-24 20:37:00,49.3,16.7,30.04,WSW,238,1.0,0.0,27,0.00,,,0.00,meteohub,2013-03-25 03:37:00,
2013-03-24 20:42:00,49.6,15.3,30.04,WSW,241,0.0,2.0,25,0.00,,,0.00,meteohub,2013-03-25 03:42:00,
2013-03-24 20:47:00,49.8,14.5,30.04,WSW,241,0.0,2.0,24,0.00,,,0.00,meteohub,2013-03-25 03:47:00,
2013-03-24 20:52:00,49.6,16.2,30.04,WSW,242,0.0,2.0,26,0.00,,,0.00,meteohub,2013-03-25 03:52:00,
2013-03-24 20:57:00,49.5,16.0,30.04,WSW,240,0.0,0.0,26,0.00,,,0.00,meteohub,2013-03-25 03:57:00,
2013-03-24 21:02:00,49.5,15.1,30.04,WSW,241,0.0,0.0,25,0.00,,,0.00,meteohub,2013-03-25 04:02:00,
2013-03-24 21:07:00,49.3,15.8,30.04,SW,236,0.0,0.0,26,0.00,,,0.00,meteohub,2013-03-25 04:07:00,
2013-03-24 21:12:00,49.5,15.1,30.04,SW,233,0.0,0.0,25,0.00,,,0.00,meteohub,2013-03-25 04:12:00,
2013-03-24 21:17:00,49.5,16.0,30.04,SW,233,0.0,0.0,26,0.00,,,0.00,meteohub,2013-03-25 04:17:00,
2013-03-24 21:22:00,49.5,15.1,30.04,SW,233,0.0,0.0,25,0.00,,,0.00,meteohub,2013-03-25 04:22:00,
2013-03-24 21:27:00,49.5,15.1,30.04,SW,233,0.0,0.0,25,0.00,,,0.00,meteohub,2013-03-25 04:27:00,
2013-03-24 21:32:00,49.5,15.1,30.04,SW,235,0.0,0.0,25,0.00,,,0.00,meteohub,2013-03-25 04:32:00,
2013-03-24 21:37:00,49.3,15.8,30.05,SW,233,0.0,0.0,26,0.00,,,0.00,meteohub,2013-03-25 04:37:00,
2013-03-24 21:47:00,49.3,15.8,30.05,SW,231,0.0,0.0,26,0.00,,,0.00,meteohub,2013-03-25 04:47:00,
2013-03-24 21:52:00,49.3,15.8,30.05,SW,231,0.0,0.0,26,0.00,,,0.00,meteohub,2013-03-25 04:52:00,
2013-03-24 22:02:00,49.5,16.0,30.05,SW,225,0.0,0.0,26,0.00,,,0.00,meteohub,2013-03-25 05:02:00,
2013-03-24 22:07:00,49.5,16.9,30.05,SW,226,0.0,0.0,27,0.00,,,0.00,meteohub,2013-03-25 05:07:00,
2013-03-24 22:12:00,49.3,15.8,30.05,SW,225,0.0,0.0,26,0.00,,,0.00,meteohub,2013-03-25 05:12:00,
2013-03-24 22:17:00,49.3,15.8,30.05,SW,224,0.0,0.0,26,0.00,,,0.00,meteohub,2013-03-25 05:17:00,
2013-03-24 22:22:00,49.3,15.8,30.05,WSW,257,0.0,0.0,26,0.00,,,0.00,meteohub,2013-03-25 05:22:00,
2013-03-24 22:27:00,49.1,16.5,30.06,WNW,283,0.0,0.0,27,0.00,,,0.00,meteohub,2013-03-25 05:27:00,
2013-03-24 22:37:00,48.7,17.1,30.06,SW,229,0.0,2.0,28,0.00,,,0.00,meteohub,2013-03-25 05:37:00,
2013-03-24 22:42:00,48.4,18.3,30.06,SW,231,0.0,2.0,30,0.00,,,0.00,meteohub,2013-03-25 05:42:00,
2013-03-24 22:47:00,48.4,19.9,30.06,SW,232,0.0,2.0,32,0.00,,,0.00,meteohub,2013-03-25 05:47:00,
2013-03-24 22:52:00,48.4,20.7,30.06,SW,232,0.0,0.0,33,0.00,,,0.00,meteohub,2013-03-25 05:52:00,
2013-03-24 22:57:00,48.4,21.4,30.06,SW,232,0.0,0.0,34,0.00,,,0.00,meteohub,2013-03-25 05:57:00,
2013-03-24 23:02:00,48.0,21.0,30.06,SW,231,0.0,0.0,34,0.00,,,0.00,meteohub,2013-03-25 06:02:00,
2013-03-24 23:07:00,47.8,22.1,30.06,SW,229,0.0,0.0,36,0.00,,,0.00,meteohub,2013-03-25 06:07:00,
2013-03-24 23:12:00,47.3,22.3,30.06,SW,231,0.0,0.0,37,0.00,,,0.00,meteohub,2013-03-25 06:12:00,
2013-03-24 23:17:00,46.9,21.4,30.06,SW,229,0.0,0.0,36,0.00,,,0.00,meteohub,2013-03-25 06:17:00,
2013-03-24 23:22:00,46.9,21.4,30.05,SW,229,0.0,0.0,36,0.00,,,0.00,meteohub,2013-03-25 06:22:00,
2013-03-24 23:27:00,46.9,20.7,30.05,SW,229,0.0,0.0,35,0.00,,,0.00,meteohub,2013-03-25 06:27:00,
2013-03-24 23:32:00,46.9,21.4,30.05,SW,231,0.0,0.0,36,0.00,,,0.00,meteohub,2013-03-25 06:32:00,
2013-03-24 23:37:00,46.8,21.2,30.05,SW,231,0.0,0.0,36,0.00,,,0.00,meteohub,2013-03-25 06:37:00,
2013-03-24 23:42:00,46.8,21.2,30.05,SW,231,0.0,0.0,36,0.00,,,0.00,meteohub,2013-03-25 06:42:00,
2013-03-24 23:47:00,46.8,21.2,30.05,SW,229,0.0,0.0,36,0.00,,,0.00,meteohub,2013-03-25 06:47:00,
2013-03-24 23:52:00,46.8,21.2,30.05,SW,229,0.0,0.0,36,0.00,,,0.00,meteohub,2013-03-25 06:52:00,
2013-03-24 23:57:00,46.8,21.2,30.05,SW,229,0.0,0.0,36,0.00,,,0.00,meteohub,2013-03-25 06:57:00,